EST,Max TemperatureF,Mean TemperatureF,Min TemperatureF,Max Dew PointF,MeanDew PointF,Min DewpointF,Max Humidity, Mean Humidity, Min Humidity, Max Sea Level PressureIn, Mean Sea Level PressureIn, Min Sea Level PressureIn, Max VisibilityMiles, Mean VisibilityMiles, Min VisibilityMiles, Max Wind SpeedMPH, Mean Wind SpeedMPH, Max Gust SpeedMPH,PrecipitationIn, CloudCover, Events, WindDirDegrees
2013-2-1,43,34,26,32,16,5,71,48,23,30.43,30.32,30.12,10,10,10,13,7,20,0.00,0,,322
2013-2-2,41,30,19,35,26,17,100,85,41,30.38,30.23,30.14,10,6,0,7,1,,0.24,4,Fog-Rain,203
2013-2-3,55,42,30,38,32,25,100,81,28,30.16,30.10,30.02,10,5,0,15,5,25,0.00,3,Fog,254
2013-2-4,48,37,26,35,29,25,96,75,49,30.14,30.08,30.00,10,10,10,7,2,,0.00,0,,74
2013-2-5,55,45,35,47,40,33,100,82,59,30.05,30.01,29.96,10,8,1,8,1,,0.00,6,,209
2013-2-6,66,50,35,45,38,35,100,82,30,30.20,30.12,30.05,10,5,0,5,0,,0.00,2,Fog,77
2013-2-7,51,45,39,48,45,38,100,92,66,30.12,30.01,29.94,10,6,1,8,2,,0.03,7,Rain,50
2013-2-8,57,47,37,49,44,30,100,88,50,30.23,30.03,29.93,10,7,2,14,4,21,0.12,6,Rain,309
2013-2-9,61,47,33,36,31,28,82,62,30,30.32,30.25,30.20,10,10,10,10,6,,0.00,0,,5
2013-2-10,56,48,39,52,43,30,100,81,39,30.27,30.14,30.03,10,7,2,13,4,24,1.35,6,Rain-Thunderstorm,107
2013-2-11,56,52,46,55,52,47,100,97,75,30.14,30.08,30.02,10,5,1,8,2,,0.28,7,Rain,242
2013-2-12,53,48,42,46,39,30,97,75,36,30.13,30.03,29.83,10,10,8,7,3,,0.03,4,Rain,32
2013-2-13,48,42,37,47,42,34,100,88,70,30.01,29.83,29.72,10,7,2,15,4,21,0.04,8,Rain,242
2013-2-14,55,46,35,38,34,32,96,70,44,30.09,30.04,30.00,10,10,10,6,2,,0.00,3,,316
2013-2-15,62,46,30,40,34,28,96,68,38,30.12,30.06,29.99,10,9,6,15,3,23,0.00,3,,319
2013-2-16,43,36,28,29,21,11,70,52,28,30.19,30.07,30.01,10,10,10,17,8,25,0.00,4,,327
2013-2-17,48,33,18,22,17,10,89,58,23,30.31,30.25,30.20,10,10,10,10,1,,0.00,0,,290
2013-2-18,62,43,24,29,25,20,88,53,21,30.35,30.22,30.04,10,10,10,18,4,25,0.00,1,,172
2013-2-19,57,48,39,46,33,15,100,70,26,30.19,30.06,29.99,10,8,2,14,6,24,0.28,5,Rain,242
2013-2-20,50,37,24,24,16,7,81,42,14,30.25,30.20,30.15,10,10,10,12,4,,0.00,2,,360
2013-2-21,64,47,30,45,27,15,97,52,20,30.21,30.09,29.93,10,9,4,10,5,,1.06,4,Rain-Thunderstorm,41
2013-2-22,46,44,42,45,42,40,100,94,81,30.13,30.07,30.01,10,7,2,10,7,24,0.00,8,Rain,121
2013-2-23,55,48,39,49,45,40,100,96,77,30.05,29.93,29.85,10,5,0,38,2,36,0.35,6,Fog-Rain,28
2013-2-24,63,46,30,39,34,27,100,84,26,30.06,29.98,29.93,10,5,0,9,1,,0.00,1,Fog,360
2013-2-25,55,45,35,41,35,29,93,65,32,30.01,29.91,29.79,10,10,7,15,6,24,0.12,5,Rain,101
2013-2-26,53,46,39,46,39,32,100,85,61,29.78,29.64,29.55,10,8,2,15,10,31,0.71,8,Rain,173
2013-2-27,57,50,42,36,33,30,71,56,34,29.90,29.84,29.79,10,10,10,14,7,22,0.00,6,Rain,255
2013-2-28,46,42,37,34,29,25,81,62,38,30.04,29.94,29.87,10,10,10,13,7,21,0.00,7,,292